createdAt,value
2022-08-11T00:01:59.546Z,34.50
2022-08-11T00:04:27.393Z,33.70
2022-08-11T00:06:55.345Z,34.00
2022-08-11T00:09:31.461Z,34.60
2022-08-11T00:11:59.145Z,34.60
2022-08-11T00:14:37.282Z,34.60
2022-08-11T00:17:08.690Z,34.10
2022-08-11T00:20:13.014Z,34.50
2022-08-11T00:22:26.896Z,34.90
2022-08-11T00:24:58.568Z,35.30
2022-08-11T00:27:36.171Z,34.70
2022-08-11T00:30:04.499Z,35.60
2022-08-11T00:32:33.247Z,35.00
2022-08-11T00:35:55.789Z,35.10
2022-08-11T00:37:50.053Z,34.50
2022-08-11T00:40:26.908Z,34.80
2022-08-11T00:43:07.501Z,34.50
2022-08-11T00:45:42.246Z,34.80
2022-08-11T00:48:25.015Z,34.80
2022-08-11T00:51:02.234Z,34.70
2022-08-11T00:53:38.067Z,35.10
2022-08-11T00:56:37.379Z,35.30
2022-08-11T00:59:37.750Z,35.00
2022-08-11T01:02:16.006Z,35.00
2022-08-11T01:05:11.018Z,35.30
2022-08-11T01:08:10.561Z,35.40
2022-08-11T01:10:56.538Z,34.80
2022-08-11T01:13:50.739Z,36.00
2022-08-11T01:16:55.934Z,35.80
2022-08-11T01:20:47.861Z,35.60
2022-08-11T01:23:37.053Z,35.20
2022-08-11T01:26:42.220Z,35.30
2022-08-11T01:29:54.538Z,35.70
2022-08-11T01:32:55.886Z,35.40
2022-08-11T01:35:48.212Z,35.80
2022-08-11T01:38:42.632Z,36.00
2022-08-11T01:41:36.081Z,35.70
2022-08-11T01:44:27.532Z,35.10
2022-08-11T01:47:06.633Z,35.40
2022-08-11T01:50:07.852Z,36.10
2022-08-11T01:52:35.161Z,35.40
2022-08-11T01:55:14.686Z,36.10
2022-08-11T01:57:46.025Z,36.10
2022-08-11T02:00:17.104Z,36.00
2022-08-11T02:02:59.079Z,36.10
2022-08-11T02:05:49.753Z,36.10
2022-08-11T02:08:36.492Z,35.80
2022-08-11T02:11:20.169Z,36.70
2022-08-11T02:13:57.405Z,36.20
2022-08-11T02:16:39.677Z,36.70
2022-08-11T02:19:20.811Z,36.50
2022-08-11T02:21:52.445Z,36.30
2022-08-11T02:24:26.746Z,36.50
2022-08-11T02:27:00.667Z,36.60
2022-08-11T02:29:33.407Z,36.90
2022-08-11T02:32:25.626Z,36.60
2022-08-11T02:35:01.801Z,36.50
2022-08-11T02:37:41.774Z,37.20
2022-08-11T02:40:22.749Z,36.80
2022-08-11T02:42:57.843Z,36.50
2022-08-11T02:45:38.156Z,36.60
2022-08-11T02:48:13.429Z,37.60
2022-08-11T02:50:47.778Z,36.70
2022-08-11T02:53:20.121Z,37.20
2022-08-11T02:56:01.638Z,36.50
2022-08-11T02:58:37.008Z,36.60
2022-08-11T03:01:12.836Z,37.10
2022-08-11T03:03:48.729Z,37.20
2022-08-11T03:06:29.426Z,37.20
2022-08-11T03:09:04.300Z,37.10
2022-08-11T03:11:52.450Z,36.80
2022-08-11T03:14:25.447Z,36.80
2022-08-11T03:17:00.494Z,37.10
2022-08-11T03:19:34.360Z,37.40
2022-08-11T03:22:08.162Z,37.40
2022-08-11T03:24:49.859Z,37.20
2022-08-11T03:27:30.764Z,36.80
2022-08-11T03:30:06.244Z,37.10
2022-08-11T03:32:41.761Z,37.40
2022-08-11T03:35:10.673Z,37.60
2022-08-11T03:37:55.537Z,38.50
2022-08-11T03:40:40.428Z,38.70
2022-08-11T03:43:24.035Z,39.10
2022-08-11T03:46:00.788Z,39.60
2022-08-11T03:48:37.602Z,39.10
2022-08-11T03:51:12.875Z,38.70
2022-08-11T03:54:00.644Z,38.50
2022-08-11T03:57:15.979Z,38.20
2022-08-11T04:03:07.355Z,38.90
2022-08-11T04:06:16.338Z,39.60
2022-08-11T04:09:00.545Z,38.20
2022-08-11T04:11:56.563Z,38.00
2022-08-11T04:14:51.362Z,38.30
2022-08-11T04:17:50.694Z,38.90
2022-08-11T04:20:50.917Z,38.60
2022-08-11T04:24:35.746Z,38.00
2022-08-11T04:27:14.396Z,37.90
2022-08-11T04:30:03.631Z,37.60
2022-08-11T04:33:10.141Z,38.30
2022-08-11T04:35:48.796Z,38.10
2022-08-11T04:38:57.988Z,38.90
2022-08-11T04:41:55.160Z,38.70
2022-08-11T04:45:04.618Z,40.00
2022-08-11T04:48:03.874Z,39.10
2022-08-11T04:50:45.468Z,39.80
2022-08-11T04:53:52.283Z,39.80
2022-08-11T04:56:22.868Z,39.80
2022-08-11T04:59:15.156Z,40.50
2022-08-11T05:02:04.693Z,41.50
2022-08-11T05:04:56.178Z,42.00
2022-08-11T05:07:51.861Z,42.30
2022-08-11T05:10:28.788Z,42.80
2022-08-11T05:12:58.037Z,43.30
2022-08-11T05:15:43.147Z,43.20
2022-08-11T05:18:16.977Z,43.80
2022-08-11T05:20:50.122Z,43.30
2022-08-11T05:23:21.309Z,43.80
2022-08-11T05:26:44.420Z,45.30
2022-08-11T05:28:46.670Z,44.60
2022-08-11T05:31:16.413Z,45.00
2022-08-11T05:33:49.017Z,45.40
2022-08-11T05:36:26.877Z,45.30
2022-08-11T05:38:57.959Z,45.60
2022-08-11T05:41:27.055Z,44.50
2022-08-11T05:44:21.143Z,44.90
2022-08-11T05:46:45.935Z,44.60
2022-08-11T05:49:13.857Z,43.70
2022-08-11T05:51:51.935Z,44.00
2022-08-11T05:54:28.451Z,44.70
2022-08-11T05:56:58.599Z,43.90
2022-08-11T05:59:27.293Z,43.50
2022-08-11T06:02:01.096Z,42.30
2022-08-11T06:04:28.646Z,44.00
2022-08-11T06:06:57.520Z,44.40
2022-08-11T06:09:31.237Z,43.00
2022-08-11T06:12:01.766Z,43.30
2022-08-11T06:14:29.611Z,43.50
2022-08-11T06:17:00.453Z,44.70
2022-08-11T06:19:39.425Z,44.00
2022-08-11T06:22:09.705Z,44.50
2022-08-11T06:24:39.986Z,43.20
2022-08-11T06:27:15.054Z,43.50
2022-08-11T06:29:55.236Z,43.00
2022-08-11T06:32:27.651Z,42.50
2022-08-11T06:35:23.337Z,42.20
2022-08-11T06:38:04.892Z,41.90
2022-08-11T06:40:36.893Z,41.70
2022-08-11T06:43:11.639Z,42.40
2022-08-11T06:45:48.496Z,42.10
2022-08-11T06:48:20.841Z,42.40
2022-08-11T06:50:50.765Z,40.90
2022-08-11T06:53:19.299Z,41.50
2022-08-11T06:55:57.348Z,41.80
2022-08-11T06:58:29.808Z,40.90
2022-08-11T07:01:00.479Z,40.60
2022-08-11T07:03:32.781Z,40.80
2022-08-11T07:06:07.049Z,40.70
2022-08-11T07:09:19.462Z,40.40
2022-08-11T07:12:00.030Z,39.20
2022-08-11T07:14:32.784Z,39.70
2022-08-11T07:17:02.816Z,39.70
2022-08-11T07:19:31.743Z,39.80
2022-08-11T07:22:04.099Z,39.50
2022-08-11T07:24:59.671Z,38.80
2022-08-11T07:27:30.270Z,38.60
2022-08-11T07:30:02.565Z,38.30
2022-08-11T07:32:32.741Z,37.70
2022-08-11T07:35:08.038Z,37.60
2022-08-11T07:37:36.261Z,37.40
2022-08-11T07:40:04.033Z,37.00
2022-08-11T07:42:33.010Z,36.80
2022-08-11T07:45:00.177Z,36.50
2022-08-11T07:47:28.491Z,36.40
2022-08-11T07:49:55.467Z,36.00
2022-08-11T07:52:25.063Z,35.70
2022-08-11T07:54:52.502Z,35.40
2022-08-11T07:57:54.064Z,35.30
2022-08-11T08:00:07.762Z,35.30
2022-08-11T08:02:37.387Z,34.80
2022-08-11T08:05:07.116Z,35.00
2022-08-11T08:07:37.589Z,35.00
2022-08-11T08:10:08.405Z,34.80
2022-08-11T08:12:36.396Z,34.50
2022-08-11T08:15:08.315Z,34.60
2022-08-11T08:17:36.327Z,34.50
2022-08-11T08:20:04.133Z,34.10
2022-08-11T08:22:38.876Z,34.10
2022-08-11T08:25:17.184Z,34.10
2022-08-11T08:27:44.751Z,33.70
2022-08-11T08:30:13.599Z,33.70
2022-08-11T08:32:42.539Z,33.10
2022-08-11T08:35:11.243Z,32.90
2022-08-11T08:37:45.733Z,32.80
2022-08-11T08:40:15.677Z,32.80
2022-08-11T08:42:51.816Z,32.60
2022-08-11T08:45:19.419Z,32.30
2022-08-11T08:47:53.365Z,32.20
2022-08-11T08:50:27.647Z,31.80
2022-08-11T08:52:58.059Z,31.50
2022-08-11T08:55:28.516Z,32.00
2022-08-11T08:57:56.778Z,31.90
2022-08-11T09:00:23.990Z,30.90
2022-08-11T09:02:52.314Z,31.80
2022-08-11T09:05:20.027Z,30.70
2022-08-11T09:07:50.086Z,31.50
2022-08-11T09:10:20.390Z,31.50
2022-08-11T09:12:50.149Z,31.40
2022-08-11T09:15:19.815Z,30.00
2022-08-11T09:17:48.841Z,29.50
2022-08-11T09:20:19.494Z,29.10
2022-08-11T09:23:03.359Z,30.00
2022-08-11T09:25:36.887Z,30.00
2022-08-11T09:28:05.642Z,29.70
2022-08-11T09:30:32.471Z,29.80
2022-08-11T09:33:02.040Z,30.10
2022-08-11T09:35:29.891Z,29.70
2022-08-11T09:37:58.258Z,29.60
2022-08-11T09:40:27.282Z,29.20
2022-08-11T09:42:54.939Z,29.40
2022-08-11T09:45:23.144Z,29.40
2022-08-11T09:47:50.654Z,28.80
2022-08-11T09:50:18.053Z,29.20
2022-08-11T09:53:09.916Z,28.50
2022-08-11T09:55:33.524Z,28.20
2022-08-11T09:58:01.110Z,28.50
2022-08-11T10:00:34.430Z,27.80
2022-08-11T10:03:01.393Z,27.30
2022-08-11T10:05:29.582Z,27.20
2022-08-11T10:07:56.892Z,26.90
2022-08-11T10:10:24.646Z,26.50
2022-08-11T10:12:57.931Z,26.40
2022-08-11T10:15:25.191Z,25.70
2022-08-11T10:17:57.121Z,25.50
2022-08-11T10:20:25.939Z,25.80
2022-08-11T10:22:54.168Z,25.40
2022-08-11T10:25:22.016Z,25.60
2022-08-11T10:28:32.686Z,25.50
2022-08-11T10:30:38.180Z,25.30
2022-08-11T10:33:12.313Z,26.10
2022-08-11T10:35:59.535Z,26.50
2022-08-11T10:38:27.557Z,26.20
2022-08-11T10:40:55.358Z,25.00
2022-08-11T10:44:01.458Z,24.50
2022-08-11T10:46:10.304Z,25.70
2022-08-11T10:48:38.832Z,25.40
2022-08-11T10:51:07.622Z,24.30
2022-08-11T10:53:35.598Z,23.90
2022-08-11T10:58:33.327Z,23.60
2022-08-11T11:01:01.530Z,23.50
2022-08-11T11:03:30.323Z,22.90
2022-08-11T11:06:12.621Z,23.90
2022-08-11T11:09:03.673Z,24.80
2022-08-11T11:11:35.737Z,23.30
2022-08-11T11:14:03.703Z,25.10
2022-08-11T11:16:31.428Z,24.60
2022-08-11T11:19:03.993Z,23.40
2022-08-11T11:21:33.048Z,24.10
2022-08-11T11:24:14.365Z,22.80
2022-08-11T11:26:50.681Z,24.20
2022-08-11T11:29:33.871Z,23.70
2022-08-11T11:32:15.270Z,23.60
2022-08-11T11:35:00.890Z,24.20
2022-08-11T11:37:32.332Z,23.70
2022-08-11T11:40:01.286Z,23.80
2022-08-11T11:42:28.400Z,24.10
2022-08-11T11:44:56.778Z,22.50
2022-08-11T11:47:26.625Z,23.40
2022-08-11T11:49:53.846Z,24.00
2022-08-11T11:52:22.008Z,23.70
2022-08-11T11:54:54.999Z,23.10
2022-08-11T11:57:22.772Z,23.10
2022-08-11T11:59:51.012Z,23.00
2022-08-11T12:02:17.991Z,22.30
2022-08-11T12:04:46.308Z,23.00
2022-08-11T12:07:13.395Z,22.50
2022-08-11T12:09:40.924Z,20.40
2022-08-11T12:12:09.733Z,21.10
2022-08-11T12:14:37.073Z,22.00
2022-08-11T12:17:04.042Z,22.20
2022-08-11T12:19:35.497Z,23.30
2022-08-11T12:22:03.124Z,21.90
2022-08-11T12:24:31.030Z,21.90
2022-08-11T12:27:16.715Z,21.80
2022-08-11T12:29:52.847Z,21.50
2022-08-11T12:32:24.482Z,19.60
2022-08-11T12:34:51.673Z,21.90
2022-08-11T12:37:24.570Z,22.00
2022-08-11T12:40:10.957Z,20.60
2022-08-11T12:42:44.820Z,21.40
2022-08-11T12:45:27.942Z,22.60
2022-08-11T12:48:13.963Z,21.60
2022-08-11T12:50:51.986Z,21.50
2022-08-11T12:53:22.309Z,22.60
2022-08-11T12:56:03.347Z,20.40
2022-08-11T12:58:30.979Z,21.10
2022-08-11T13:00:59.190Z,22.50
2022-08-11T13:03:26.654Z,21.70
2022-08-11T13:05:56.085Z,19.00
2022-08-11T13:08:24.060Z,22.50
2022-08-11T13:10:53.155Z,21.30
2022-08-11T13:13:54.660Z,22.40
2022-08-11T13:16:09.641Z,21.90
2022-08-11T13:18:39.771Z,22.00
2022-08-11T13:21:06.697Z,21.90
2022-08-11T13:23:33.635Z,21.20
2022-08-11T13:26:01.903Z,20.10
2022-08-11T13:28:29.391Z,20.70
2022-08-11T13:30:56.418Z,19.80
2022-08-11T13:33:25.510Z,21.20
2022-08-11T13:35:54.695Z,20.90
2022-08-11T13:38:24.657Z,18.40
2022-08-11T13:40:56.014Z,20.00
2022-08-11T13:43:23.988Z,20.60
2022-08-11T13:45:53.059Z,19.90
2022-08-11T13:48:19.828Z,19.80
2022-08-11T13:50:48.362Z,20.70
2022-08-11T13:53:17.130Z,20.40
2022-08-11T13:55:51.022Z,19.50
2022-08-11T13:58:40.781Z,19.00
2022-08-11T14:02:03.126Z,20.10
2022-08-11T14:04:30.076Z,20.30
2022-08-11T14:06:50.723Z,20.90
2022-08-11T14:09:25.142Z,19.70
2022-08-11T14:12:22.125Z,20.10
2022-08-11T14:14:46.956Z,17.70
2022-08-11T14:17:46.987Z,18.50
2022-08-11T14:20:38.515Z,18.30
2022-08-11T14:22:56.126Z,19.90
2022-08-11T14:25:22.889Z,20.30
2022-08-11T14:28:32.414Z,20.70
2022-08-11T14:31:01.313Z,20.70
2022-08-11T14:33:58.677Z,20.40
2022-08-11T14:36:17.874Z,19.70
2022-08-11T14:38:47.463Z,19.00
2022-08-11T14:41:14.944Z,18.20
2022-08-11T14:44:14.218Z,18.20
2022-08-11T14:46:29.812Z,18.70
2022-08-11T14:48:56.531Z,20.20
2022-08-11T14:51:24.029Z,19.30
2022-08-11T15:22:13.869Z,23.30
2022-08-11T15:24:41.004Z,21.60
2022-08-11T15:27:12.329Z,21.90
2022-08-11T15:29:41.866Z,19.60
2022-08-11T15:32:10.958Z,17.90
2022-08-11T15:34:40.626Z,17.90
2022-08-11T15:37:09.801Z,17.70
2022-08-11T15:39:41.719Z,17.20
2022-08-11T15:42:13.168Z,17.10
2022-08-11T15:45:01.740Z,17.20
2022-08-11T15:47:36.402Z,17.10
2022-08-11T15:50:10.672Z,17.50
2022-08-11T15:52:47.657Z,17.30
2022-08-11T15:55:16.953Z,17.00
2022-08-11T15:57:47.418Z,17.60
2022-08-11T16:00:15.955Z,18.10
2022-08-11T16:02:45.316Z,18.00
2022-08-11T16:05:25.091Z,17.80
2022-08-11T16:08:03.863Z,17.70
2022-08-11T16:10:34.460Z,18.20
2022-08-11T16:13:05.411Z,18.30
2022-08-11T16:15:34.155Z,18.10
2022-08-11T16:18:06.090Z,17.60
2022-08-11T16:20:34.837Z,17.90
2022-08-11T16:23:04.656Z,18.10
2022-08-11T16:27:01.508Z,18.40
2022-08-11T16:28:23.090Z,18.00
2022-08-11T16:30:50.946Z,18.30
2022-08-11T16:33:48.468Z,18.80
2022-08-11T16:36:08.796Z,18.60
2022-08-11T16:38:38.115Z,17.00
2022-08-11T16:41:11.617Z,17.00
2022-08-11T16:43:41.870Z,17.70
2022-08-11T16:46:11.391Z,17.80
2022-08-11T16:48:39.856Z,17.40
2022-08-11T16:51:08.186Z,17.80
2022-08-11T16:54:00.149Z,17.80
2022-08-11T16:56:30.018Z,17.60
2022-08-11T16:59:00.140Z,17.70
2022-08-11T17:01:27.746Z,17.90
2022-08-11T17:04:02.586Z,18.40
2022-08-11T17:06:29.655Z,18.60
2022-08-11T17:08:58.254Z,18.60
2022-08-11T17:11:29.761Z,18.40
2022-08-11T17:13:59.319Z,18.50
2022-08-11T17:16:32.059Z,19.00
2022-08-11T17:19:01.728Z,18.90
2022-08-11T17:21:31.624Z,19.40
2022-08-11T17:24:06.334Z,19.10
2022-08-11T17:26:39.637Z,19.20
2022-08-11T17:29:06.662Z,19.00
2022-08-11T17:31:33.332Z,19.60
2022-08-11T17:34:01.267Z,19.20
2022-08-11T17:36:28.132Z,19.20
2022-08-11T17:38:56.381Z,19.10
2022-08-11T17:41:23.943Z,19.30
2022-08-11T17:43:54.756Z,19.60
2022-08-11T17:46:22.223Z,19.30
2022-08-11T17:48:49.658Z,19.50
2022-08-11T17:51:19.621Z,19.80
2022-08-11T17:54:10.169Z,20.00
2022-08-11T17:56:34.991Z,20.10
2022-08-11T17:59:04.599Z,20.00
2022-08-11T18:01:32.591Z,20.30
2022-08-11T18:04:00.525Z,20.40
2022-08-11T18:06:34.349Z,20.30
2022-08-11T18:09:04.343Z,20.50
2022-08-11T18:12:06.695Z,20.40
2022-08-11T18:14:28.216Z,20.50
2022-08-11T18:16:55.180Z,20.60
2022-08-11T18:19:22.098Z,20.80
2022-08-11T18:22:11.118Z,20.90
2022-08-11T18:24:41.535Z,20.90
2022-08-11T18:27:11.708Z,21.10
2022-08-11T18:29:42.530Z,21.20
2022-08-11T18:32:11.745Z,21.00
2022-08-11T18:34:50.262Z,21.20
2022-08-11T18:37:25.958Z,21.10
2022-08-11T18:39:58.736Z,21.20
2022-08-11T18:42:29.826Z,21.30
2022-08-11T18:45:01.333Z,21.40
2022-08-11T18:47:29.979Z,21.20
2022-08-11T18:50:03.846Z,21.40
2022-08-11T18:52:34.649Z,21.60
2022-08-11T18:55:04.044Z,21.70
2022-08-11T18:57:31.944Z,21.70
2022-08-11T19:00:06.877Z,21.80
2022-08-11T19:02:48.405Z,21.90
2022-08-11T19:05:18.397Z,22.00
2022-08-11T19:07:46.906Z,22.20
2022-08-11T19:10:16.083Z,22.30
2022-08-11T19:12:46.399Z,22.20
2022-08-11T19:15:15.189Z,22.20
2022-08-11T19:17:46.050Z,22.40
2022-08-11T19:20:16.199Z,22.60
2022-08-11T19:22:44.803Z,22.90
2022-08-11T19:25:12.867Z,22.70
2022-08-11T19:27:41.731Z,23.00
2022-08-11T19:30:13.552Z,23.00
2022-08-11T19:32:43.238Z,23.10
2022-08-11T19:35:11.061Z,23.20
2022-08-11T19:37:44.331Z,23.40
2022-08-11T19:40:12.495Z,23.40
2022-08-11T19:42:41.621Z,23.60
2022-08-11T19:45:09.100Z,23.70
2022-08-11T19:47:36.300Z,23.80
2022-08-11T19:50:05.422Z,23.80
2022-08-11T19:52:32.830Z,23.90
2022-08-11T19:55:00.868Z,24.10
2022-08-11T19:57:29.245Z,24.40
2022-08-11T19:59:56.431Z,24.70
2022-08-11T20:02:23.324Z,24.80
2022-08-11T20:04:50.977Z,24.90
2022-08-11T20:07:20.873Z,25.00
2022-08-11T20:10:04.893Z,25.50
2022-08-11T20:12:35.058Z,25.50
2022-08-11T20:15:03.218Z,25.90
2022-08-11T20:17:33.635Z,26.00
2022-08-11T20:20:03.935Z,26.10
2022-08-11T20:22:32.075Z,26.50
2022-08-11T20:24:59.429Z,26.50
2022-08-11T20:27:26.656Z,26.70
2022-08-11T20:29:55.687Z,26.60
2022-08-11T20:32:22.764Z,26.80
2022-08-11T20:34:49.523Z,26.80
2022-08-11T20:37:21.071Z,26.90
2022-08-11T20:39:51.407Z,27.00
2022-08-11T20:42:19.905Z,27.00
2022-08-11T20:44:49.427Z,26.90
2022-08-11T20:47:17.177Z,27.00
2022-08-11T20:49:53.663Z,27.10
2022-08-11T20:52:28.271Z,27.30
2022-08-11T20:54:57.758Z,27.30
2022-08-11T20:57:54.423Z,27.40
2022-08-11T21:00:15.554Z,27.30
2022-08-11T21:02:44.514Z,27.30
2022-08-11T21:05:13.199Z,27.00
2022-08-11T21:07:55.333Z,27.00
2022-08-11T21:10:28.068Z,27.10
2022-08-11T21:12:58.125Z,27.10
2022-08-11T21:16:01.313Z,27.10
2022-08-11T21:18:32.566Z,27.20
2022-08-11T21:21:04.613Z,27.20
2022-08-11T21:23:35.025Z,27.20
2022-08-11T21:26:08.219Z,27.10
2022-08-11T21:28:38.566Z,27.20
2022-08-11T21:31:06.774Z,27.30
2022-08-11T21:33:34.326Z,27.30
2022-08-11T21:36:02.829Z,27.40
2022-08-11T21:38:30.784Z,27.50
2022-08-11T21:41:00.093Z,27.60
2022-08-11T21:43:31.341Z,27.70
2022-08-11T21:45:59.180Z,27.90
2022-08-11T21:48:27.869Z,27.90
2022-08-11T21:50:54.551Z,27.60
2022-08-11T21:53:22.103Z,27.60
2022-08-11T21:55:51.341Z,27.60
2022-08-11T21:58:18.520Z,27.50
2022-08-11T22:00:46.907Z,27.40
2022-08-11T22:03:14.041Z,27.40
2022-08-11T22:05:42.037Z,27.40
2022-08-11T22:08:09.256Z,27.30
2022-08-11T22:10:42.125Z,27.20
2022-08-11T22:13:11.252Z,27.40
2022-08-11T22:15:38.611Z,27.40
2022-08-11T22:18:06.711Z,27.60
2022-08-11T22:20:35.280Z,27.60
2022-08-11T22:23:02.596Z,27.80
2022-08-11T22:25:38.419Z,28.00
2022-08-11T22:28:05.618Z,28.00
2022-08-11T22:30:33.288Z,27.90
2022-08-11T22:33:01.707Z,28.00
2022-08-11T22:35:32.039Z,27.80
2022-08-11T22:37:59.888Z,27.80
2022-08-11T22:40:26.680Z,27.80
2022-08-11T22:42:53.501Z,27.90
2022-08-11T22:45:20.804Z,27.90
2022-08-11T22:47:49.262Z,27.90
2022-08-11T22:50:16.684Z,27.80
2022-08-11T22:52:46.440Z,27.80
2022-08-11T22:55:13.767Z,27.90
2022-08-11T22:58:00.894Z,27.90
2022-08-11T23:00:30.517Z,27.90
2022-08-11T23:02:58.493Z,28.00
2022-08-11T23:05:27.377Z,27.90
2022-08-11T23:07:56.672Z,28.00
2022-08-11T23:10:23.960Z,27.90
2022-08-11T23:12:50.828Z,28.10
2022-08-11T23:15:17.971Z,28.40
2022-08-11T23:17:45.039Z,28.50
2022-08-11T23:20:28.529Z,28.60
2022-08-11T23:23:02.905Z,28.70
2022-08-11T23:25:31.458Z,28.70
2022-08-11T23:28:01.302Z,28.90
2022-08-11T23:30:28.925Z,28.90
2022-08-11T23:32:59.585Z,28.80
2022-08-11T23:35:38.149Z,28.70
2022-08-11T23:38:08.736Z,29.00
2022-08-11T23:40:37.904Z,29.30
2022-08-11T23:43:05.167Z,29.40
2022-08-11T23:45:32.619Z,29.10
2022-08-11T23:48:01.712Z,29.40
2022-08-11T23:50:29.313Z,29.20
2022-08-11T23:52:56.849Z,29.40
2022-08-11T23:55:25.293Z,29.30
2022-08-11T23:57:52.388Z,30.00
